createdAt,value
2019-03-21T00:02:16.224Z,52.23
2019-03-21T00:05:19.951Z,52.80
2019-03-21T00:08:23.692Z,46.80
2019-03-21T00:11:55.619Z,43.95
2019-03-21T00:15:07.679Z,55.45
2019-03-21T00:22:47.607Z,57.43
2019-03-21T00:25:51.520Z,46.05
2019-03-21T00:28:55.391Z,48.85
2019-03-21T00:31:59.241Z,49.65
2019-03-21T00:35:03.320Z,54.63
2019-03-21T00:38:07.267Z,50.80
2019-03-21T00:41:11.139Z,51.25
2019-03-21T00:44:18.478Z,50.28
2019-03-21T00:47:20.604Z,53.90
2019-03-21T00:50:24.923Z,48.65
2019-03-21T00:53:28.881Z,46.70
2019-03-21T00:56:32.548Z,49.95
2019-03-21T00:59:37.221Z,52.25
2019-03-21T01:02:41.038Z,50.83
2019-03-21T01:05:44.795Z,49.15
2019-03-21T01:08:48.640Z,53.20
2019-03-21T01:11:52.315Z,49.13
2019-03-21T01:14:56.004Z,58.98
2019-03-21T01:17:59.828Z,52.90
2019-03-21T01:21:04.755Z,57.40
2019-03-21T01:24:08.716Z,54.48
2019-03-21T01:27:12.379Z,53.17
2019-03-21T01:30:16.296Z,56.83
2019-03-21T01:33:20.001Z,62.05
2019-03-21T01:36:24.057Z,52.17
2019-03-21T01:39:27.864Z,62.35
2019-03-21T01:42:31.627Z,54.63
2019-03-21T01:45:35.341Z,53.05
2019-03-21T01:48:39.292Z,59.67
2019-03-21T01:51:43.043Z,57.80
2019-03-21T01:54:46.774Z,56.65
2019-03-21T01:57:50.568Z,56.33
2019-03-21T02:00:54.390Z,55.00
2019-03-21T02:03:58.155Z,57.38
2019-03-21T02:07:01.809Z,61.85
2019-03-21T02:10:07.079Z,53.52
2019-03-21T02:13:10.857Z,64.67
2019-03-21T02:16:14.697Z,60.45
2019-03-21T02:19:18.471Z,57.93
2019-03-21T02:22:22.283Z,62.27
2019-03-21T02:25:27.219Z,62.40
2019-03-21T02:28:30.927Z,63.25
2019-03-21T02:31:34.643Z,55.92
2019-03-21T02:34:38.353Z,67.75
2019-03-21T02:37:42.358Z,67.65
2019-03-21T02:40:46.062Z,68.62
2019-03-21T02:43:49.779Z,60.78
2019-03-21T02:46:53.580Z,64.45
2019-03-21T02:49:57.393Z,70.22
2019-03-21T02:53:01.005Z,68.52
2019-03-21T02:56:05.661Z,77.97
2019-03-21T02:59:09.433Z,69.47
2019-03-21T03:02:13.139Z,75.17
2019-03-21T03:05:19.032Z,62.50
2019-03-21T03:08:22.841Z,67.12
2019-03-21T03:11:26.547Z,69.67
2019-03-21T03:14:31.457Z,71.25
2019-03-21T03:17:35.296Z,74.92
2019-03-21T03:20:38.959Z,74.20
2019-03-21T03:23:42.911Z,73.50
2019-03-21T03:26:46.617Z,66.33
2019-03-21T03:29:50.397Z,73.00
2019-03-21T03:32:54.342Z,66.40
2019-03-21T03:35:58.048Z,67.95
2019-03-21T03:39:01.924Z,72.47
2019-03-21T03:42:07.306Z,76.65
2019-03-21T03:45:14.357Z,66.22
2019-03-21T03:48:19.916Z,70.95
2019-03-21T03:51:23.956Z,73.83
2019-03-21T03:54:27.824Z,68.97
2019-03-21T03:57:31.562Z,72.47
2019-03-21T04:00:35.340Z,70.90
2019-03-21T04:03:39.152Z,66.35
2019-03-21T04:06:42.999Z,65.37
2019-03-21T04:09:46.777Z,77.92
2019-03-21T04:12:50.613Z,79.58
2019-03-21T04:15:54.412Z,69.58
2019-03-21T04:18:58.288Z,70.95
2019-03-21T04:22:03.167Z,72.17
2019-03-21T04:25:08.104Z,72.95
2019-03-21T04:28:14.479Z,72.75
2019-03-21T04:31:18.150Z,72.20
2019-03-21T04:34:21.960Z,71.00
2019-03-21T04:37:26.631Z,68.22
2019-03-21T04:40:30.292Z,67.55
2019-03-21T04:43:34.008Z,77.60
2019-03-21T04:46:37.792Z,76.37
2019-03-21T04:49:41.512Z,73.72
2019-03-21T04:52:45.256Z,74.03
2019-03-21T04:55:48.928Z,73.75
2019-03-21T04:58:52.640Z,71.75
2019-03-21T05:01:56.478Z,76.35
2019-03-21T05:05:00.287Z,69.25
2019-03-21T05:08:04.110Z,78.52
2019-03-21T05:11:08.082Z,73.28
2019-03-21T05:14:11.768Z,75.97
2019-03-21T05:17:15.527Z,69.20
2019-03-21T05:20:21.492Z,77.95
2019-03-21T05:23:25.267Z,70.05
2019-03-21T05:26:28.971Z,67.22
2019-03-21T05:29:32.470Z,76.90
2019-03-21T05:32:36.427Z,75.67
2019-03-21T05:35:40.096Z,73.45
2019-03-21T05:38:43.800Z,66.30
2019-03-21T05:41:47.655Z,74.67
2019-03-21T05:44:51.511Z,76.07
2019-03-21T05:47:55.436Z,75.08
2019-03-21T05:50:59.237Z,69.82
2019-03-21T05:54:03.172Z,72.15
2019-03-21T05:57:06.951Z,70.55
2019-03-21T06:00:17.528Z,66.70
2019-03-21T06:03:23.936Z,72.03
2019-03-21T06:06:49.669Z,69.90
2019-03-21T06:09:54.361Z,72.87
2019-03-21T06:12:58.159Z,70.20
2019-03-21T06:16:08.167Z,83.30
2019-03-21T06:19:19.043Z,74.32
2019-03-21T06:22:59.464Z,69.07
2019-03-21T06:26:39.936Z,75.05
2019-03-21T06:29:43.876Z,70.22
2019-03-21T06:32:47.560Z,68.57
2019-03-21T06:35:51.459Z,73.22
2019-03-21T06:38:55.211Z,74.25
2019-03-21T06:41:58.926Z,69.82
2019-03-21T06:45:02.687Z,71.10
2019-03-21T06:48:06.525Z,63.42
2019-03-21T06:51:10.402Z,64.97
2019-03-21T06:54:14.155Z,62.35
2019-03-21T06:57:17.802Z,65.78
2019-03-21T07:00:21.731Z,61.13
2019-03-21T07:03:25.644Z,56.15
2019-03-21T07:06:29.452Z,59.35
2019-03-21T07:09:33.177Z,58.70
2019-03-21T07:12:36.871Z,55.95
2019-03-21T07:15:40.685Z,52.25
2019-03-21T07:18:44.388Z,53.55
2019-03-21T07:21:48.095Z,48.45
2019-03-21T07:24:51.835Z,47.62
2019-03-21T07:27:55.611Z,45.65
2019-03-21T07:30:59.353Z,45.28
2019-03-21T07:34:03.041Z,45.33
2019-03-21T07:37:06.882Z,47.55
2019-03-21T07:40:11.749Z,44.33
2019-03-21T07:43:15.413Z,44.18
2019-03-21T07:46:19.226Z,37.78
2019-03-21T07:49:23.197Z,37.93
2019-03-21T07:52:27.041Z,38.88
2019-03-21T07:55:30.860Z,42.53
2019-03-21T07:58:34.733Z,35.55
2019-03-21T08:01:38.581Z,33.63
2019-03-21T08:04:42.347Z,37.08
2019-03-21T08:07:46.092Z,35.95
2019-03-21T08:10:49.822Z,34.53
2019-03-21T08:13:53.461Z,35.25
2019-03-21T08:16:57.268Z,35.92
2019-03-21T08:20:00.988Z,41.65
2019-03-21T08:23:04.731Z,37.20
2019-03-21T08:26:08.544Z,42.13
2019-03-21T08:29:12.323Z,41.80
2019-03-21T08:32:16.364Z,43.92
2019-03-21T08:35:22.339Z,42.43
2019-03-21T08:38:26.309Z,42.05
2019-03-21T08:41:30.146Z,44.30
2019-03-21T08:44:33.825Z,44.27
2019-03-21T08:47:37.816Z,45.75
2019-03-21T08:50:41.553Z,41.90
2019-03-21T08:53:45.296Z,40.23
2019-03-21T08:56:48.992Z,44.05
2019-03-21T08:59:52.664Z,50.67
2019-03-21T09:02:56.408Z,50.25
2019-03-21T09:06:00.210Z,52.00
2019-03-21T09:09:06.040Z,43.40
2019-03-21T09:12:09.863Z,44.90
2019-03-21T09:15:13.756Z,45.70
2019-03-21T09:18:17.568Z,44.67
2019-03-21T09:21:21.377Z,48.68
2019-03-21T09:24:25.189Z,48.20
2019-03-21T09:27:28.916Z,44.63
2019-03-21T09:30:32.594Z,38.10
2019-03-21T09:33:36.411Z,45.15
2019-03-21T09:36:40.221Z,42.62
2019-03-21T09:39:43.936Z,37.20
2019-03-21T09:42:47.916Z,44.03
2019-03-21T09:45:51.652Z,40.38
2019-03-21T09:48:55.455Z,40.98
2019-03-21T09:51:59.284Z,34.30
2019-03-21T09:55:03.180Z,35.03
2019-03-21T09:58:07.132Z,34.08
2019-03-21T10:01:10.805Z,36.90
2019-03-21T10:04:15.001Z,35.05
2019-03-21T10:07:19.035Z,36.00
2019-03-21T10:10:27.351Z,36.13
2019-03-21T10:13:31.193Z,30.32
2019-03-21T10:16:34.863Z,31.90
2019-03-21T10:19:38.567Z,32.85
2019-03-21T10:22:42.371Z,31.35
2019-03-21T10:25:46.117Z,34.75
2019-03-21T10:28:49.895Z,29.70
2019-03-21T10:31:53.732Z,32.13
2019-03-21T10:34:57.523Z,33.70
2019-03-21T10:38:01.207Z,34.53
2019-03-21T10:41:04.936Z,32.08
2019-03-21T10:44:08.740Z,32.65
2019-03-21T10:47:12.441Z,34.27
2019-03-21T10:50:22.092Z,30.92
2019-03-21T10:53:25.944Z,31.93
2019-03-21T10:56:29.603Z,29.77
2019-03-21T10:59:33.319Z,22.85
2019-03-21T11:02:37.029Z,26.25
2019-03-21T11:05:40.728Z,27.45
2019-03-21T11:08:44.577Z,28.32
2019-03-21T11:11:48.390Z,24.30
2019-03-21T11:14:52.295Z,25.75
2019-03-21T11:17:56.895Z,23.80
2019-03-21T11:21:00.631Z,26.52
2019-03-21T11:24:04.455Z,24.80
2019-03-21T11:27:08.208Z,28.73
2019-03-21T11:30:16.440Z,28.23
2019-03-21T11:33:20.240Z,28.92
2019-03-21T11:36:23.979Z,28.85
2019-03-21T11:39:27.796Z,26.68
2019-03-21T11:42:31.597Z,29.70
2019-03-21T11:45:35.417Z,30.10
2019-03-21T11:48:39.075Z,25.37
2019-03-21T11:51:43.919Z,30.15
2019-03-21T11:54:50.035Z,28.20
2019-03-21T11:57:54.000Z,29.10
2019-03-21T12:00:57.736Z,32.85
2019-03-21T12:04:01.407Z,28.05
2019-03-21T12:07:05.115Z,28.70
2019-03-21T12:10:09.064Z,29.52
2019-03-21T12:13:12.841Z,27.13
2019-03-21T12:16:16.589Z,26.27
2019-03-21T12:19:20.358Z,33.08
2019-03-21T12:22:29.826Z,33.02
2019-03-21T12:25:29.644Z,41.18
2019-03-21T12:28:33.301Z,30.08
2019-03-21T12:31:37.060Z,31.93
2019-03-21T12:34:40.732Z,32.67
2019-03-21T12:37:44.539Z,28.67
2019-03-21T12:40:48.294Z,28.90
2019-03-21T12:43:52.004Z,29.30
2019-03-21T12:46:55.800Z,31.90
2019-03-21T12:49:59.505Z,30.82
2019-03-21T12:53:03.300Z,32.35
2019-03-21T12:56:07.125Z,31.12
2019-03-21T12:59:10.800Z,34.15
2019-03-21T13:02:14.510Z,31.52
2019-03-21T13:05:26.601Z,34.33
2019-03-21T13:08:34.022Z,32.48
2019-03-21T13:11:35.904Z,30.65
2019-03-21T13:14:39.604Z,30.70
2019-03-21T13:17:43.264Z,28.50
2019-03-21T13:20:47.296Z,35.15
2019-03-21T13:23:51.106Z,33.40
2019-03-21T13:26:54.854Z,35.80
2019-03-21T13:29:58.625Z,31.35
2019-03-21T13:33:02.476Z,32.53
2019-03-21T13:36:07.357Z,33.92
2019-03-21T13:39:11.996Z,33.15
2019-03-21T13:42:15.849Z,31.52
2019-03-21T13:45:20.536Z,33.28
2019-03-21T13:48:24.261Z,33.83
2019-03-21T13:51:27.947Z,30.68
2019-03-21T13:54:31.760Z,29.65
2019-03-21T13:57:54.463Z,27.52
2019-03-21T14:00:58.224Z,29.15
2019-03-21T14:04:02.075Z,29.05
2019-03-21T14:07:05.944Z,28.05
2019-03-21T14:10:11.300Z,29.18
2019-03-21T14:13:15.100Z,34.55
2019-03-21T14:16:18.792Z,32.65
2019-03-21T14:19:22.515Z,28.30
2019-03-21T14:22:26.325Z,31.73
2019-03-21T14:25:30.080Z,27.45
2019-03-21T14:28:33.947Z,28.95
2019-03-21T14:31:37.854Z,28.35
2019-03-21T14:34:41.564Z,31.65
2019-03-21T14:37:45.269Z,30.37
2019-03-21T14:40:48.972Z,34.90
2019-03-21T14:43:52.887Z,31.87
2019-03-21T14:46:56.599Z,33.13
2019-03-21T14:50:00.405Z,30.27
2019-03-21T14:53:04.220Z,28.25
2019-03-21T14:56:07.969Z,30.57
2019-03-21T14:59:11.760Z,30.27
2019-03-21T15:02:15.650Z,34.78
2019-03-21T15:05:19.693Z,28.65
2019-03-21T15:08:23.569Z,24.80
2019-03-21T15:11:27.320Z,29.00
2019-03-21T15:14:32.124Z,29.85
2019-03-21T15:17:36.077Z,30.20
2019-03-21T15:20:39.867Z,29.65
2019-03-21T15:23:44.557Z,27.70
2019-03-21T15:26:51.033Z,26.75
2019-03-21T15:29:54.071Z,31.23
2019-03-21T15:32:57.727Z,35.25
2019-03-21T15:36:01.475Z,27.52
2019-03-21T15:39:07.332Z,30.75
2019-03-21T15:42:11.442Z,40.48
2019-03-21T15:45:22.593Z,29.07
2019-03-21T15:48:21.244Z,24.05
2019-03-21T15:51:25.027Z,30.48
2019-03-21T15:54:28.808Z,29.25
2019-03-21T15:57:32.720Z,33.00
2019-03-21T16:00:37.727Z,29.45
2019-03-21T16:03:41.467Z,32.55
2019-03-21T16:06:45.312Z,30.85
2019-03-21T16:09:48.975Z,30.65
2019-03-21T16:12:52.688Z,26.55
2019-03-21T16:15:56.530Z,33.30
2019-03-21T16:19:00.307Z,33.78
2019-03-21T16:22:04.287Z,32.00
2019-03-21T16:25:08.170Z,34.95
2019-03-21T16:28:11.836Z,30.85
2019-03-21T16:31:15.680Z,29.92
2019-03-21T16:34:19.455Z,32.03
2019-03-21T16:37:23.269Z,30.05
2019-03-21T16:40:27.005Z,30.37
2019-03-21T16:43:30.677Z,34.70
2019-03-21T16:46:34.299Z,34.40
2019-03-21T16:49:37.989Z,31.85
2019-03-21T16:52:41.803Z,27.67
2019-03-21T16:55:45.565Z,30.48
2019-03-21T16:58:49.211Z,30.17
2019-03-21T17:01:53.159Z,32.88
2019-03-21T17:04:57.024Z,33.95
2019-03-21T17:08:10.333Z,32.65
2019-03-21T17:11:06.569Z,31.17
2019-03-21T17:14:10.296Z,31.30
2019-03-21T17:17:14.147Z,41.33
2019-03-21T17:20:17.945Z,35.28
2019-03-21T17:23:21.955Z,30.43
2019-03-21T17:26:25.686Z,35.00
2019-03-21T17:29:29.454Z,39.10
2019-03-21T17:32:33.376Z,35.38
2019-03-21T17:35:37.179Z,32.90
2019-03-21T17:38:40.871Z,39.90
2019-03-21T17:41:44.775Z,38.65
2019-03-21T17:44:48.508Z,38.20
2019-03-21T17:47:52.219Z,42.43
2019-03-21T17:50:56.082Z,43.83
2019-03-21T17:53:59.735Z,43.50
2019-03-21T17:57:03.578Z,42.73
2019-03-21T18:00:10.599Z,45.92
2019-03-21T18:03:14.243Z,42.65
2019-03-21T18:06:18.049Z,42.80
2019-03-21T18:09:21.742Z,45.60
2019-03-21T18:12:25.496Z,40.40
2019-03-21T18:15:29.446Z,43.70
2019-03-21T18:18:33.311Z,41.58
2019-03-21T18:21:36.996Z,40.00
2019-03-21T18:24:53.087Z,41.60
2019-03-21T18:27:46.383Z,42.05
2019-03-21T18:30:53.377Z,45.50
2019-03-21T18:33:57.287Z,41.77
2019-03-21T18:37:00.932Z,39.58
2019-03-21T18:40:10.059Z,47.70
2019-03-21T18:43:14.151Z,44.30
2019-03-21T18:46:17.897Z,44.95
2019-03-21T18:49:21.755Z,39.45
2019-03-21T18:52:25.434Z,42.15
2019-03-21T18:55:29.276Z,47.60
2019-03-21T18:58:33.290Z,48.33
2019-03-21T19:01:37.160Z,48.42
2019-03-21T19:04:42.163Z,40.28
2019-03-21T19:07:46.050Z,44.10
2019-03-21T19:10:49.691Z,44.60
2019-03-21T19:13:53.459Z,41.28
2019-03-21T19:16:57.238Z,46.00
2019-03-21T19:20:00.968Z,42.93
2019-03-21T19:23:04.751Z,48.48
2019-03-21T19:26:08.715Z,43.40
2019-03-21T19:29:14.985Z,44.38
2019-03-21T19:32:18.688Z,47.43
2019-03-21T19:35:22.335Z,56.02
2019-03-21T19:38:26.204Z,43.42
2019-03-21T19:41:30.095Z,56.45
2019-03-21T19:44:35.279Z,48.17
2019-03-21T19:47:39.360Z,49.35
2019-03-21T19:50:43.040Z,52.48
2019-03-21T19:53:47.000Z,56.45
2019-03-21T19:56:50.754Z,50.78
2019-03-21T19:59:54.603Z,50.20
2019-03-21T20:02:58.395Z,62.20
2019-03-21T20:06:02.221Z,48.15
2019-03-21T20:09:07.203Z,46.05
2019-03-21T20:12:14.384Z,51.70
2019-03-21T20:15:18.634Z,51.23
2019-03-21T20:18:22.464Z,57.98
2019-03-21T20:21:26.267Z,56.77
2019-03-21T20:24:30.063Z,51.80
2019-03-21T20:27:33.978Z,49.95
2019-03-21T20:30:37.724Z,55.35
2019-03-21T20:33:41.594Z,60.65
2019-03-21T20:36:45.401Z,51.75
2019-03-21T20:39:49.207Z,55.35
2019-03-21T20:42:52.913Z,59.85
2019-03-21T20:45:56.647Z,48.38
2019-03-21T20:48:59.824Z,47.30
2019-03-21T20:52:03.636Z,50.95
2019-03-21T20:55:07.744Z,46.30
2019-03-21T20:58:11.555Z,43.48
2019-03-21T21:01:15.603Z,43.02
2019-03-21T21:04:19.281Z,49.67
2019-03-21T21:07:23.188Z,45.50
2019-03-21T21:10:26.899Z,38.95
2019-03-21T21:13:30.803Z,43.25
2019-03-21T21:16:34.747Z,45.55
2019-03-21T21:19:38.428Z,45.83
2019-03-21T21:22:42.136Z,50.10
2019-03-21T21:25:45.928Z,59.18
2019-03-21T21:28:49.755Z,42.67
2019-03-21T21:31:53.499Z,45.25
2019-03-21T21:34:57.186Z,47.73
2019-03-21T21:38:00.975Z,44.23
2019-03-21T21:41:05.013Z,53.75
2019-03-21T21:44:08.924Z,53.55
2019-03-21T21:47:12.819Z,45.25
2019-03-21T21:50:16.600Z,40.85
2019-03-21T21:53:20.223Z,44.88
2019-03-21T21:56:23.936Z,48.38
2019-03-21T21:59:27.852Z,41.95
2019-03-21T22:02:31.792Z,40.38
2019-03-21T22:05:35.564Z,44.53
2019-03-21T22:08:39.411Z,50.60
2019-03-21T22:11:43.369Z,47.10
2019-03-21T22:14:47.134Z,43.38
2019-03-21T22:17:50.901Z,45.08
2019-03-21T22:20:54.620Z,43.92
2019-03-21T22:23:58.361Z,43.15
2019-03-21T22:27:02.255Z,45.12
2019-03-21T22:30:08.125Z,42.70
2019-03-21T22:33:11.896Z,41.13
2019-03-21T22:36:15.584Z,45.60
2019-03-21T22:39:19.248Z,45.67
2019-03-21T22:42:22.903Z,39.88
2019-03-21T22:45:26.791Z,43.28
2019-03-21T22:48:30.476Z,45.58
2019-03-21T22:51:34.145Z,43.10
2019-03-21T22:54:38.087Z,38.95
2019-03-21T22:57:41.860Z,37.45
2019-03-21T23:00:46.415Z,36.58
2019-03-21T23:03:50.324Z,40.30
2019-03-21T23:06:54.141Z,36.53
2019-03-21T23:09:58.072Z,43.48
2019-03-21T23:13:01.838Z,38.15
2019-03-21T23:16:05.640Z,38.30
2019-03-21T23:19:23.084Z,41.00
2019-03-21T23:22:28.754Z,41.92
2019-03-21T23:25:32.527Z,35.25
2019-03-21T23:28:36.991Z,41.37
2019-03-21T23:31:40.772Z,37.78
2019-03-21T23:34:44.599Z,38.20
2019-03-21T23:37:48.284Z,38.23
2019-03-21T23:40:52.226Z,37.40
2019-03-21T23:43:55.940Z,46.55
2019-03-21T23:47:00.963Z,40.08
2019-03-21T23:50:05.888Z,43.95
2019-03-21T23:53:09.587Z,42.17
2019-03-21T23:56:13.291Z,43.40
2019-03-21T23:59:17.135Z,36.68
